Time;durP1;ratioP1;P1;durP2;ratioP2;P2;SDS_P1;SDS_P2;PMS_P1;PMS_P2;Temp;Humidity;BMP_temperature;BMP_pressure;BME280_temperature;BME280_humidity;BME280_pressure;Samples;Min_cycle;Max_cycle;Signal;HPM_P1;HPM_P2
2024/01/24 00:02:52;;;;;;;5.43;2.70;;;;;;;16.20;57.14;100770.75;683089;28;992;-86
2024/01/24 00:03:13;;;;;;;8.15;2.70;;;;;;;16.25;56.91;100762.91;685440;28;1150;-87
2024/01/24 00:03:33;;;;;;;8.80;2.50;;;;;;;16.17;56.87;100770.75;677268;29;1255;-85
2024/01/24 00:03:54;;;;;;;13.35;2.70;;;;;;;16.18;56.92;100757.59;674448;29;1605;-85
2024/01/24 00:04:15;;;;;;;11.10;2.80;;;;;;;16.18;57.14;100783.91;674705;29;1187;-86
2024/01/24 00:04:40;;;;;;;11.80;2.90;;;;;;;16.18;57.14;100807.59;677201;29;1054;-87
2024/01/24 00:05:00;;;;;;;8.43;2.80;;;;;;;16.15;56.94;100760.22;678827;29;1558;-85
2024/01/24 00:05:21;;;;;;;4.93;2.30;;;;;;;16.25;56.82;100761.16;677200;29;1201;-87
2024/01/24 00:05:42;;;;;;;3.28;2.30;;;;;;;16.33;56.83;100761.19;677267;29;1113;-85
2024/01/24 00:06:03;;;;;;;3.45;2.10;;;;;;;16.36;56.76;100757.69;674314;29;1553;-87
2024/01/24 00:06:23;;;;;;;3.08;1.98;;;;;;;16.35;56.70;100751.53;674648;29;1111;-86
2024/01/24 00:06:44;;;;;;;6.80;2.20;;;;;;;16.33;56.68;100757.69;674712;29;873;-86
2024/01/24 00:07:08;;;;;;;6.75;2.40;;;;;;;16.20;56.68;100788.28;674235;29;1611;-85
2024/01/24 00:07:28;;;;;;;6.03;2.42;;;;;;;16.30;56.76;100791.03;674584;29;1273;-84
2024/01/24 00:07:50;;;;;;;3.43;2.30;;;;;;;16.22;56.98;100808.50;674253;29;1689;-84
2024/01/24 00:08:11;;;;;;;3.40;2.55;;;;;;;16.18;56.82;100760.22;674549;29;1541;-85
2024/01/24 00:08:31;;;;;;;3.22;2.45;;;;;;;16.33;56.73;100790.16;674101;29;1106;-85
2024/01/24 00:08:52;;;;;;;3.50;2.47;;;;;;;16.19;56.89;100761.09;674345;29;1512;-85
2024/01/24 00:09:13;;;;;;;4.65;2.50;;;;;;;16.11;56.74;100755.78;675140;29;1240;-85
2024/01/24 00:09:34;;;;;;;13.90;3.00;;;;;;;16.20;56.77;100793.56;677117;29;1176;-85
2024/01/24 00:09:55;;;;;;;14.07;3.00;;;;;;;16.26;56.85;100777.84;675195;29;1602;-85
2024/01/24 00:10:15;;;;;;;17.10;2.88;;;;;;;16.25;56.76;100778.72;674514;29;892;-85
2024/01/24 00:10:37;;;;;;;7.90;2.50;;;;;;;16.30;56.73;100748.88;674700;29;1010;-86
2024/01/24 00:10:57;;;;;;;6.95;2.50;;;;;;;16.22;56.88;100763.75;674311;29;1230;-86
2024/01/24 00:11:18;;;;;;;4.70;2.60;;;;;;;16.34;56.65;100775.25;672482;29;1380;-86
2024/01/24 00:11:39;;;;;;;5.82;2.80;;;;;;;16.31;56.59;100748.00;674573;29;1513;-86
2024/01/24 00:11:59;;;;;;;6.50;3.03;;;;;;;16.34;56.56;100754.19;673401;29;1670;-86
2024/01/24 00:12:20;;;;;;;5.30;3.08;;;;;;;16.39;56.54;100734.00;674391;29;1487;-85
2024/01/24 00:12:40;;;;;;;4.45;2.85;;;;;;;16.34;56.38;100749.78;676017;29;1173;-85
2024/01/24 00:13:01;;;;;;;4.57;2.70;;;;;;;16.30;56.30;100769.09;676871;29;1520;-87
2024/01/24 00:13:22;;;;;;;4.00;2.35;;;;;;;16.30;56.50;100769.09;677158;29;792;-84
2024/01/24 00:13:42;;;;;;;6.60;2.20;;;;;;;16.34;56.63;100784.00;671963;29;1269;-85
2024/01/24 00:14:03;;;;;;;7.30;2.30;;;;;;;16.25;56.57;100766.44;671090;29;1463;-86
2024/01/24 00:14:24;;;;;;;8.02;2.42;;;;;;;16.36;56.58;100789.28;674512;29;1074;-86
2024/01/24 00:14:44;;;;;;;5.72;2.70;;;;;;;16.30;56.53;100759.41;674674;29;698;-85
2024/01/24 00:15:05;;;;;;;5.83;2.53;;;;;;;16.29;56.66;100772.59;676891;29;1519;-87
2024/01/24 00:15:26;;;;;;;7.95;2.67;;;;;;;16.26;56.58;100751.50;674612;29;1042;-86
2024/01/24 00:15:47;;;;;;;7.32;2.20;;;;;;;16.06;57.12;100754.00;679834;29;1314;-84
2024/01/24 00:16:07;;;;;;;6.10;2.20;;;;;;;16.00;57.03;100729.41;676773;29;1541;-84
2024/01/24 00:16:28;;;;;;;3.90;2.10;;;;;;;16.11;56.67;100741.75;677183;29;1070;-86
2024/01/24 00:16:49;;;;;;;4.03;2.45;;;;;;;16.20;56.98;100741.78;674893;29;1401;-85
2024/01/24 00:17:09;;;;;;;4.97;2.65;;;;;;;16.24;56.76;100743.59;677280;29;973;-84
2024/01/24 00:17:30;;;;;;;4.65;2.50;;;;;;;16.28;56.68;100747.13;677321;29;1097;-84
2024/01/24 00:17:51;;;;;;;3.53;2.07;;;;;;;16.33;56.46;100784.88;682028;29;1519;-86
2024/01/24 00:18:11;;;;;;;2.70;2.03;;;;;;;16.32;56.73;100730.47;677218;29;1109;-87
2024/01/24 00:18:32;;;;;;;7.10;2.28;;;;;;;16.44;56.26;100751.59;673860;29;1976;-85
2024/01/24 00:18:53;;;;;;;7.72;2.30;;;;;;;16.43;56.40;100728.72;677029;29;1705;-86
2024/01/24 00:19:14;;;;;;;7.53;2.20;;;;;;;16.49;56.22;100733.16;674557;29;1084;-86
2024/01/24 00:19:35;;;;;;;3.13;2.10;;;;;;;16.43;56.13;100736.63;677157;29;1185;-86
2024/01/24 00:19:55;;;;;;;4.15;2.35;;;;;;;16.52;56.01;100737.53;676024;29;1472;-87
2024/01/24 00:20:16;;;;;;;5.00;2.70;;;;;;;16.41;56.02;100724.38;677276;29;1244;-86
2024/01/24 00:20:36;;;;;;;6.23;3.00;;;;;;;16.38;56.19;100714.69;677245;29;1117;-85
2024/01/24 00:20:57;;;;;;;5.70;2.90;;;;;;;16.52;55.94;100721.72;679454;29;1642;-86
2024/01/24 00:21:17;;;;;;;5.45;2.80;;;;;;;16.42;56.03;100700.63;674529;29;1162;-84
2024/01/24 00:23:33;;;;;;;4.93;2.50;;;;;;;16.55;56.06;100725.25;683914;28;827;-85
2024/01/24 00:23:54;;;;;;;5.28;2.53;;;;;;;16.54;55.78;100686.63;687557;28;1544;-86
2024/01/24 00:24:15;;;;;;;4.97;2.60;;;;;;;16.53;55.91;100718.25;681864;28;1041;-85
2024/01/24 00:24:36;;;;;;;6.35;2.72;;;;;;;16.47;56.11;100715.59;682466;29;1077;-85
2024/01/24 00:24:56;;;;;;;5.60;2.60;;;;;;;16.34;56.24;100744.50;679535;29;1504;-84
2024/01/24 00:25:17;;;;;;;9.40;2.70;;;;;;;16.25;56.49;100702.34;679791;29;1360;-86
2024/01/24 00:25:38;;;;;;;10.93;2.50;;;;;;;16.27;56.54;100709.38;679792;29;956;-86
2024/01/24 00:25:58;;;;;;;11.77;2.72;;;;;;;16.27;56.48;100729.56;680866;29;1493;-85
2024/01/24 00:26:20;;;;;;;7.40;2.42;;;;;;;16.33;56.16;100732.22;680037;29;1041;-87
2024/01/24 00:26:40;;;;;;;7.13;2.55;;;;;;;16.31;56.22;100719.03;677072;29;1249;-84
2024/01/24 00:27:01;;;;;;;6.95;2.33;;;;;;;16.27;56.47;100722.56;679455;29;1585;-87
2024/01/24 00:27:22;;;;;;;7.68;2.53;;;;;;;16.25;56.29;100697.09;680980;29;1171;-86
2024/01/24 00:27:43;;;;;;;8.53;2.90;;;;;;;16.25;56.34;100702.34;678932;29;1464;-86
2024/01/24 00:28:05;;;;;;;6.78;2.60;;;;;;;16.18;56.66;100707.56;676807;29;1544;-87
2024/01/24 00:28:26;;;;;;;5.75;2.33;;;;;;;16.16;56.55;100688.25;679252;29;1279;-87
2024/01/24 00:28:47;;;;;;;4.78;2.25;;;;;;;16.15;56.68;100688.25;679939;29;863;-87
2024/01/24 00:29:07;;;;;;;6.00;2.53;;;;;;;16.12;56.66;100686.47;677103;29;1482;-86
2024/01/24 00:29:28;;;;;;;5.70;2.60;;;;;;;16.01;57.06;100699.63;674471;29;1220;-86
2024/01/24 00:29:49;;;;;;;5.00;2.20;;;;;;;15.98;57.24;100704.84;671720;29;1549;-84
2024/01/24 00:30:09;;;;;;;3.40;1.90;;;;;;;15.99;57.33;100697.84;672762;29;1611;-87
2024/01/24 00:30:30;;;;;;;2.70;1.77;;;;;;;16.04;57.18;100693.47;679727;29;1374;-87
2024/01/24 00:30:51;;;;;;;2.22;1.70;;;;;;;16.09;57.27;100693.50;676834;29;1615;-86
2024/01/24 00:31:11;;;;;;;4.60;2.10;;;;;;;15.85;57.51;100698.66;682154;29;1659;-85
2024/01/24 00:31:32;;;;;;;4.40;2.00;;;;;;;15.88;57.74;100703.06;677873;29;1610;-86
2024/01/24 00:31:55;;;;;;;4.95;2.17;;;;;;;15.94;57.80;100654.81;677204;29;1658;-85
2024/01/24 00:32:16;;;;;;;3.85;2.00;;;;;;;15.88;57.74;100679.38;681503;29;1072;-86
2024/01/24 00:32:37;;;;;;;4.30;2.10;;;;;;;15.90;57.61;100681.13;679791;29;1305;-85
2024/01/24 00:32:57;;;;;;;5.00;2.23;;;;;;;16.03;57.62;100691.69;671642;29;1452;-86
2024/01/24 00:33:20;;;;;;;5.03;2.10;;;;;;;15.88;57.68;100684.63;672021;29;1495;-85
2024/01/24 00:33:40;;;;;;;5.10;2.10;;;;;;;16.04;57.67;100685.56;674555;29;1175;-86
2024/01/24 00:34:01;;;;;;;6.17;2.27;;;;;;;16.03;57.77;100686.44;676983;29;1603;-86
2024/01/24 00:34:21;;;;;;;8.35;2.42;;;;;;;16.04;57.63;100678.56;674473;29;1275;-86
2024/01/24 00:34:42;;;;;;;8.40;2.40;;;;;;;16.04;57.67;100699.63;677262;29;1313;-85
2024/01/24 00:35:03;;;;;;;5.00;1.88;;;;;;;16.16;57.49;100687.34;676844;29;1583;-86
2024/01/24 00:35:24;;;;;;;2.65;2.00;;;;;;;16.27;57.23;100684.78;674596;29;1059;-85
2024/01/24 00:35:44;;;;;;;3.23;1.90;;;;;;;16.24;57.15;100658.44;674700;29;996;-86
2024/01/24 00:36:05;;;;;;;3.28;1.90;;;;;;;16.26;57.16;100689.19;676976;29;1492;-87
2024/01/24 00:36:26;;;;;;;4.80;1.80;;;;;;;16.25;57.21;100697.97;677167;29;1052;-86
2024/01/24 00:36:49;;;;;;;4.80;2.10;;;;;;;16.28;57.02;100671.66;679902;29;1094;-86
2024/01/24 00:37:10;;;;;;;4.95;2.35;;;;;;;16.34;57.10;100669.91;676696;29;1489;-86
2024/01/24 00:37:30;;;;;;;3.83;2.58;;;;;;;16.38;57.04;100698.00;674224;29;1364;-85
2024/01/24 00:37:51;;;;;;;3.55;2.40;;;;;;;16.36;56.96;100710.28;674365;29;1513;-83
2024/01/24 00:38:11;;;;;;;3.03;2.13;;;;;;;16.26;57.05;100712.91;672098;29;980;-84
2024/01/24 00:38:32;;;;;;;2.60;1.88;;;;;;;16.33;57.11;100695.34;671316;29;1984;-87
2024/01/24 00:38:53;;;;;;;3.33;2.00;;;;;;;16.30;57.11;100679.56;674852;29;1618;-87
2024/01/24 00:39:33;;;;;;;3.40;1.93;;;;;;;16.33;57.27;100684.81;677091;29;1047;-86
2024/01/24 00:39:54;;;;;;;4.95;2.10;;;;;;;16.40;57.02;100665.53;674297;29;1629;-87
2024/01/24 00:40:14;;;;;;;4.43;2.00;;;;;;;16.37;57.06;100657.63;677493;29;1109;-87
2024/01/24 00:40:35;;;;;;;2.78;1.88;;;;;;;16.44;56.58;100695.38;679356;29;1333;-86
2024/01/24 00:40:56;;;;;;;6.38;2.28;;;;;;;16.30;57.01;100661.13;678905;29;1495;-87
2024/01/24 00:41:16;;;;;;;6.65;2.30;;;;;;;16.24;57.01;100674.25;671976;29;1183;-84
2024/01/24 00:41:41;;;;;;;8.50;2.73;;;;;;;16.34;57.04;100681.31;672059;29;1423;-86
2024/01/24 00:42:02;;;;;;;9.20;2.63;;;;;;;16.36;57.00;100676.94;678244;29;1630;-86
2024/01/24 00:42:25;;;;;;;10.98;2.85;;;;;;;16.31;56.93;100723.44;682455;29;1013;-86
2024/01/24 00:42:46;;;;;;;10.55;2.60;;;;;;;16.44;56.70;100667.31;679913;29;979;-87
2024/01/24 00:43:06;;;;;;;5.85;2.40;;;;;;;16.40;56.95;100670.78;674134;29;1747;-86
2024/01/24 00:43:27;;;;;;;7.80;2.15;;;;;;;16.51;56.65;100668.19;674584;29;1217;-87
2024/01/24 00:43:48;;;;;;;9.80;2.20;;;;;;;16.50;56.67;100670.81;674554;29;1269;-86
2024/01/24 00:44:09;;;;;;;8.95;2.10;;;;;;;16.52;56.52;100667.31;674174;29;1650;-86
2024/01/24 00:44:29;;;;;;;5.78;2.10;;;;;;;16.54;56.31;100675.22;677177;29;1202;-86
2024/01/24 00:46:10;;;;;;;6.93;2.03;;;;;;;16.50;56.63;100729.66;674663;29;1004;-86
2024/01/24 00:46:31;;;;;;;4.72;2.40;;;;;;;16.58;56.41;100680.50;672115;29;1089;-86
2024/01/24 00:46:52;;;;;;;6.13;2.37;;;;;;;16.63;56.54;100667.31;677910;29;1552;-86
2024/01/24 00:47:15;;;;;;;7.20;2.35;;;;;;;16.69;56.25;100677.88;682452;28;1054;-85
2024/01/24 00:47:36;;;;;;;8.10;2.33;;;;;;;16.67;56.41;100669.06;674558;29;1397;-88
2024/01/24 00:47:56;;;;;;;10.27;2.38;;;;;;;16.57;56.28;100647.13;674255;29;1457;-86
2024/01/24 00:48:17;;;;;;;9.50;2.55;;;;;;;16.66;56.21;100687.53;674075;29;1204;-86
2024/01/24 00:48:37;;;;;;;8.80;2.60;;;;;;;16.66;56.25;100653.28;674532;29;1011;-87
2024/01/24 00:48:58;;;;;;;5.43;2.50;;;;;;;16.58;56.28;100663.78;676790;29;1473;-85
2024/01/24 00:49:19;;;;;;;5.35;2.38;;;;;;;16.67;56.25;100676.97;674615;29;1228;-85
2024/01/24 00:49:39;;;;;;;5.97;2.25;;;;;;;16.52;56.31;100674.31;680176;29;1110;-85
2024/01/24 00:50:00;;;;;;;5.70;2.20;;;;;;;16.65;56.34;100676.09;678337;29;1472;-87
2024/01/24 00:50:20;;;;;;;3.80;2.00;;;;;;;16.57;56.33;100669.94;677274;29;1188;-85
2024/01/24 00:50:41;;;;;;;5.80;1.77;;;;;;;16.67;56.26;100691.91;671891;29;1475;-85
2024/01/24 00:51:03;;;;;;;5.68;1.60;;;;;;;16.63;56.25;100677.88;679509;29;1563;-86
2024/01/24 00:51:23;;;;;;;7.40;1.98;;;;;;;16.61;56.35;100684.91;679822;29;1311;-85
2024/01/24 00:51:44;;;;;;;3.80;1.90;;;;;;;16.61;56.32;100692.81;679812;29;1303;-85
2024/01/24 00:52:05;;;;;;;3.22;1.92;;;;;;;16.61;56.43;100703.34;676940;29;1483;-84
2024/01/24 00:52:25;;;;;;;3.60;1.90;;;;;;;16.51;56.63;100681.34;674652;29;1242;-86
2024/01/24 00:52:51;;;;;;;6.18;2.17;;;;;;;16.67;56.10;100692.78;679850;29;1434;-86
2024/01/24 00:53:18;;;;;;;6.10;2.33;;;;;;;16.69;55.98;100684.88;677195;29;989;-86
2024/01/24 00:53:40;;;;;;;3.55;2.10;;;;;;;16.71;55.98;100691.94;676884;29;1635;-86
2024/01/24 00:54:00;;;;;;;2.90;2.05;;;;;;;16.63;56.16;100748.09;673292;29;1751;-83
2024/01/24 00:54:21;;;;;;;4.25;2.50;;;;;;;16.69;56.23;100688.41;676652;29;1691;-85
2024/01/24 00:54:41;;;;;;;5.20;2.57;;;;;;;16.72;56.07;100693.69;677026;29;1057;-85
2024/01/24 00:55:03;;;;;;;5.40;2.60;;;;;;;16.66;56.10;100690.16;674217;29;1512;-86
2024/01/24 00:55:26;;;;;;;3.90;2.22;;;;;;;16.80;56.13;100701.59;674584;29;1231;-86
2024/01/24 00:55:47;;;;;;;2.78;2.22;;;;;;;16.79;55.91;100688.41;677963;29;853;-86
2024/01/24 00:56:07;;;;;;;4.20;2.20;;;;;;;16.72;55.91;100701.59;681640;28;1507;-85
2024/01/24 00:56:28;;;;;;;4.50;2.20;;;;;;;16.80;56.09;100674.38;677062;29;1170;-87
2024/01/24 00:56:49;;;;;;;4.97;2.30;;;;;;;16.70;55.95;100657.66;677601;29;789;-86
2024/01/24 00:57:09;;;;;;;4.00;2.20;;;;;;;16.82;55.76;100681.41;679926;29;1543;-86
2024/01/24 00:57:30;;;;;;;2.97;1.93;;;;;;;16.77;55.80;100669.97;680142;29;1173;-86
2024/01/24 00:57:51;;;;;;;3.50;2.10;;;;;;;16.77;55.50;100679.66;675182;29;808;-85
2024/01/24 00:58:11;;;;;;;2.90;2.10;;;;;;;16.66;55.89;100738.44;681180;29;1187;-84
2024/01/24 00:58:32;;;;;;;2.87;2.10;;;;;;;16.78;56.02;100695.44;682157;29;1910;-85
2024/01/24 00:58:53;;;;;;;2.47;1.92;;;;;;;16.75;55.86;100673.47;679849;29;1531;-86
2024/01/24 00:59:13;;;;;;;4.30;2.00;;;;;;;16.70;56.04;100684.00;680271;29;1293;-85
2024/01/24 00:59:34;;;;;;;4.30;2.20;;;;;;;16.74;55.85;100666.44;680214;29;1055;-86
2024/01/24 00:59:55;;;;;;;4.78;2.35;;;;;;;16.70;56.12;100679.63;675279;29;1579;-86
2024/01/24 01:00:15;;;;;;;4.60;2.40;;;;;;;16.70;56.05;100705.09;675147;29;983;-85
2024/01/24 01:00:37;;;;;;;6.10;2.10;;;;;;;16.64;56.17;100653.28;674962;29;1378;-86
2024/01/24 01:00:58;;;;;;;5.47;1.70;;;;;;;16.59;56.32;100691.91;675709;29;1575;-84
2024/01/24 01:01:19;;;;;;;4.70;1.70;;;;;;;16.63;56.41;100662.06;675040;29;1169;-86
2024/01/24 01:01:40;;;;;;;2.90;1.80;;;;;;;16.59;56.28;100660.28;677515;29;1268;-85
2024/01/24 01:02:00;;;;;;;3.20;2.20;;;;;;;16.61;56.41;100669.09;677430;29;1642;-86
2024/01/24 01:02:21;;;;;;;3.20;2.20;;;;;;;16.62;56.37;100691.91;674117;29;1314;-85
2024/01/24 01:02:43;;;;;;;3.03;2.07;;;;;;;16.65;56.37;100668.19;677527;29;1231;-86
2024/01/24 01:03:04;;;;;;;3.50;1.90;;;;;;;16.70;56.16;100648.00;674617;29;1509;-86
2024/01/24 01:03:24;;;;;;;4.63;1.95;;;;;;;16.72;56.24;100688.41;674986;29;1302;-85
2024/01/24 01:03:45;;;;;;;5.53;2.10;;;;;;;16.68;56.22;100639.25;677602;29;1307;-84
2024/01/24 01:04:06;;;;;;;4.50;2.20;;;;;;;16.67;56.13;100618.16;678257;29;1503;-85
2024/01/24 01:04:26;;;;;;;3.30;2.17;;;;;;;16.60;56.41;100617.28;677565;29;1051;-85
2024/01/24 01:04:47;;;;;;;4.50;2.17;;;;;;;16.81;56.38;100657.66;677573;29;856;-86
2024/01/24 01:05:08;;;;;;;4.70;2.10;;;;;;;16.79;56.15;100641.00;677593;29;1603;-85
2024/01/24 01:05:54;;;;;;;5.60;2.20;;;;;;;16.85;56.23;100693.69;675042;29;1159;-86
2024/01/24 01:06:14;;;;;;;4.50;2.25;;;;;;;16.77;56.12;100648.03;677475;29;1261;-85
2024/01/24 01:06:35;;;;;;;4.07;2.25;;;;;;;16.80;56.28;100664.72;677630;29;1134;-85
2024/01/24 01:06:56;;;;;;;3.25;2.10;;;;;;;16.87;56.16;100633.97;677417;29;1728;-84
2024/01/24 01:07:16;;;;;;;3.93;2.07;;;;;;;16.85;55.89;100648.91;677457;29;1601;-86
2024/01/24 01:07:37;;;;;;;4.57;2.13;;;;;;;16.99;55.84;100652.38;680284;29;1023;-85
2024/01/24 01:07:57;;;;;;;4.50;2.25;;;;;;;16.80;55.90;100626.94;679447;29;1644;-85
2024/01/24 01:08:18;;;;;;;3.50;2.20;;;;;;;16.78;55.91;100626.91;677038;29;1027;-86
2024/01/24 01:08:39;;;;;;;3.25;2.20;;;;;;;16.78;55.99;100634.81;677583;29;1254;-84
2024/01/24 01:09:00;;;;;;;3.58;1.90;;;;;;;16.79;55.98;100635.72;678508;29;1728;-84
2024/01/24 01:09:21;;;;;;;4.80;1.60;;;;;;;16.72;55.95;100630.44;682764;29;1475;-85
2024/01/24 01:09:41;;;;;;;3.97;1.40;;;;;;;16.78;55.82;100633.97;680123;29;1181;-85
2024/01/24 01:10:02;;;;;;;3.47;1.60;;;;;;;16.84;55.94;100639.25;672164;29;1529;-85
2024/01/24 01:10:23;;;;;;;2.45;1.90;;;;;;;16.91;55.75;100635.69;677529;29;1381;-86
2024/01/24 01:10:43;;;;;;;3.30;2.10;;;;;;;16.78;55.59;100668.22;680302;29;753;-84
2024/01/24 01:11:05;;;;;;;3.17;1.95;;;;;;;16.79;55.95;100619.91;679951;29;1572;-84
2024/01/24 01:11:25;;;;;;;3.28;1.90;;;;;;;16.76;55.88;100633.97;680253;29;1188;-85
2024/01/24 01:11:46;;;;;;;2.47;1.90;;;;;;;16.74;55.80;100643.63;672371;29;1106;-84
2024/01/24 01:12:06;;;;;;;3.30;2.10;;;;;;;16.88;56.01;100635.72;680062;29;1631;-85
2024/01/24 01:12:27;;;;;;;4.20;2.10;;;;;;;16.91;55.82;100622.53;678716;29;1214;-86
2024/01/24 01:12:48;;;;;;;3.83;1.80;;;;;;;16.93;55.71;100635.72;677542;29;848;-86
2024/01/24 01:13:08;;;;;;;3.17;1.80;;;;;;;16.94;55.50;100667.34;677291;29;1583;-86
2024/01/24 01:13:29;;;;;;;3.10;2.00;;;;;;;17.01;55.68;100641.00;677519;29;1290;-86
2024/01/24 01:13:49;;;;;;;3.73;2.13;;;;;;;16.99;55.59;100633.94;682853;29;1179;-84
2024/01/24 01:14:10;;;;;;;3.70;2.20;;;;;;;16.91;55.54;100630.44;677331;29;1659;-86
2024/01/24 01:14:31;;;;;;;3.28;2.10;;;;;;;16.98;55.48;100626.91;680321;29;978;-86
2024/01/24 01:14:51;;;;;;;3.03;1.90;;;;;;;16.97;55.36;100662.06;677734;29;1173;-84
2024/01/24 01:15:12;;;;;;;3.00;1.85;;;;;;;16.92;55.46;100629.56;677568;29;962;-84
2024/01/24 01:15:33;;;;;;;3.42;2.10;;;;;;;16.81;55.44;100633.94;677733;29;1003;-85
2024/01/24 01:15:53;;;;;;;5.68;2.30;;;;;;;16.92;55.65;100655.94;677419;29;1610;-84
2024/01/24 01:16:14;;;;;;;6.03;2.40;;;;;;;16.92;55.44;100637.47;675024;29;1051;-85
2024/01/24 01:16:35;;;;;;;5.47;2.33;;;;;;;16.90;55.58;100639.22;680181;29;1182;-84
2024/01/24 01:16:55;;;;;;;5.10;2.30;;;;;;;16.99;55.47;100639.22;676982;29;1527;-85
2024/01/24 01:17:16;;;;;;;6.53;2.20;;;;;;;17.08;55.19;100674.38;675004;29;1146;-83
2024/01/24 01:17:37;;;;;;;6.40;2.10;;;;;;;17.07;55.38;100635.69;678072;29;1102;-85
2024/01/24 01:17:57;;;;;;;4.50;2.00;;;;;;;17.08;55.37;100627.78;679942;29;1538;-86
2024/01/24 01:18:18;;;;;;;2.83;1.90;;;;;;;17.05;55.16;100650.63;677015;29;1919;-85
2024/01/24 01:18:39;;;;;;;3.90;2.20;;;;;;;16.95;55.42;100674.38;677562;29;998;-84
2024/01/24 01:18:59;;;;;;;4.43;2.35;;;;;;;16.95;55.36;100679.63;677540;29;1589;-84
2024/01/24 01:19:20;;;;;;;5.03;2.27;;;;;;;16.98;55.45;100647.13;680157;29;1223;-85
2024/01/24 01:19:41;;;;;;;4.90;2.03;;;;;;;16.85;55.52;100667.34;677558;29;1118;-84
2024/01/24 01:20:02;;;;;;;4.85;2.00;;;;;;;16.96;55.58;100654.19;674795;29;1584;-84
2024/01/24 01:20:23;;;;;;;4.15;2.00;;;;;;;16.93;55.60;100685.78;675013;29;1126;-85
2024/01/24 01:20:43;;;;;;;5.30;2.30;;;;;;;16.84;55.91;100670.88;677689;29;797;-85
2024/01/24 01:21:04;;;;;;;4.97;2.10;;;;;;;16.91;55.37;100654.16;675226;29;1479;-86
2024/01/24 01:21:25;;;;;;;5.97;2.30;;;;;;;16.98;55.41;100637.44;678721;29;1430;-85
2024/01/24 01:21:45;;;;;;;6.80;2.00;;;;;;;17.04;55.22;100677.88;680161;29;1114;-85
2024/01/24 01:22:06;;;;;;;7.32;1.92;;;;;;;17.03;55.15;100649.75;677565;29;1497;-84
2024/01/24 01:22:27;;;;;;;4.72;2.00;;;;;;;17.07;55.26;100641.84;677457;29;1361;-86
2024/01/24 01:22:47;;;;;;;7.40;2.30;;;;;;;16.85;55.42;100648.91;677655;29;820;-84
2024/01/24 01:23:09;;;;;;;6.68;2.30;;;;;;;17.06;55.29;100641.84;679345;29;1637;-84
2024/01/24 01:23:29;;;;;;;6.75;2.20;;;;;;;17.03;55.13;100623.41;677404;29;1245;-83
2024/01/24 01:23:50;;;;;;;3.28;1.90;;;;;;;16.95;55.33;100650.66;675393;29;750;-86
2024/01/24 01:24:11;;;;;;;3.60;2.00;;;;;;;17.09;55.25;100652.41;679869;29;1587;-84
2024/01/24 01:24:31;;;;;;;3.65;1.90;;;;;;;17.15;54.87;100647.09;680138;29;1124;-85
2024/01/24 01:24:52;;;;;;;4.87;2.10;;;;;;;17.25;54.92;100656.81;680341;29;897;-85
2024/01/24 01:25:13;;;;;;;4.80;1.92;;;;;;;17.16;55.00;100648.88;677670;29;1104;-85
2024/01/24 01:25:34;;;;;;;4.43;2.00;;;;;;;17.13;55.00;100662.94;674952;29;1297;-85
2024/01/24 01:25:55;;;;;;;4.00;1.90;;;;;;;17.05;55.06;100658.53;669868;29;1758;-85
2024/01/24 01:26:15;;;;;;;3.30;2.00;;;;;;;17.16;55.18;100667.34;675001;29;1306;-86
2024/01/24 01:26:36;;;;;;;2.50;1.95;;;;;;;17.18;55.00;100654.13;680246;29;999;-85
2024/01/24 01:26:57;;;;;;;1.95;1.75;;;;;;;17.15;54.96;100644.47;679882;29;1618;-84
2024/01/24 01:27:17;;;;;;;4.60;1.65;;;;;;;17.12;55.03;100661.19;677444;29;1199;-84
2024/01/24 01:27:39;;;;;;;5.13;1.70;;;;;;;17.10;55.19;100667.34;677636;29;997;-85
2024/01/24 01:28:00;;;;;;;5.45;1.90;;;;;;;17.12;55.01;100655.03;678371;29;1771;-84
2024/01/24 01:28:20;;;;;;;3.85;2.00;;;;;;;17.16;54.82;100693.72;679698;29;1129;-84
2024/01/24 01:28:41;;;;;;;3.70;1.93;;;;;;;17.16;54.97;100656.78;680689;29;1217;-85
2024/01/24 01:29:02;;;;;;;6.80;2.15;;;;;;;17.19;54.86;100647.97;679962;29;1692;-84
2024/01/24 01:29:22;;;;;;;8.18;2.33;;;;;;;17.14;54.94;100655.91;677675;29;1161;-85
2024/01/24 01:29:43;;;;;;;9.30;2.50;;;;;;;17.21;54.87;100684.03;677495;29;792;-85
2024/01/24 01:30:04;;;;;;;5.63;2.20;;;;;;;17.08;55.13;100654.16;677118;29;1468;-84
2024/01/24 01:30:25;;;;;;;2.75;1.92;;;;;;;17.16;54.83;100667.34;677437;29;1043;-84
2024/01/24 01:30:45;;;;;;;2.80;2.00;;;;;;;17.25;54.65;100671.75;676630;29;1086;-85
2024/01/24 01:31:06;;;;;;;3.22;2.10;;;;;;;17.23;54.77;100666.47;674637;29;1571;-86
2024/01/24 01:31:27;;;;;;;3.05;2.20;;;;;;;17.13;54.48;100685.78;677560;29;1385;-85
2024/01/24 01:31:47;;;;;;;2.80;2.10;;;;;;;17.13;54.76;100644.50;677634;29;1313;-85
2024/01/24 01:32:08;;;;;;;4.25;2.20;;;;;;;16.96;55.25;100655.03;676727;29;1431;-85
2024/01/24 01:32:29;;;;;;;3.80;2.00;;;;;;;17.12;54.88;100637.47;677221;29;1252;-86
2024/01/24 01:32:50;;;;;;;4.00;2.20;;;;;;;17.23;54.78;100650.63;677848;29;702;-86
2024/01/24 01:33:11;;;;;;;2.50;2.00;;;;;;;17.35;54.49;100667.34;679823;29;1523;-84
2024/01/24 01:33:31;;;;;;;4.63;2.10;;;;;;;17.31;54.52;100671.75;680191;29;1069;-85
2024/01/24 01:33:52;;;;;;;4.45;1.90;;;;;;;17.20;54.47;100663.81;680213;29;852;-86
2024/01/24 01:34:13;;;;;;;5.10;2.08;;;;;;;17.29;54.77;100656.78;675018;29;1423;-84
2024/01/24 01:34:34;;;;;;;4.10;2.10;;;;;;;17.28;54.37;100641.84;680056;29;1304;-86
2024/01/24 01:34:54;;;;;;;3.97;2.20;;;;;;;17.46;54.33;100660.25;680335;29;1632;-85
2024/01/24 01:35:15;;;;;;;3.17;2.10;;;;;;;17.47;54.25;100645.31;682796;29;1103;-84
2024/01/24 01:35:37;;;;;;;3.13;1.88;;;;;;;17.48;54.12;100663.78;681344;29;1137;-83
2024/01/24 01:35:58;;;;;;;5.40;1.95;;;;;;;17.36;54.14;100653.25;680543;29;1601;-83
2024/01/24 01:36:21;;;;;;;6.47;2.00;;;;;;;17.35;54.17;100636.56;680133;29;1375;-83
2024/01/24 01:36:42;;;;;;;5.97;2.00;;;;;;;17.43;54.07;100665.56;677447;29;1245;-83
2024/01/24 01:37:02;;;;;;;2.70;1.88;;;;;;;17.45;54.17;100663.78;679980;29;1486;-83
2024/01/24 01:37:23;;;;;;;3.23;2.03;;;;;;;17.46;53.80;100654.97;682708;28;1248;-83
2024/01/24 01:37:44;;;;;;;5.18;2.40;;;;;;;17.35;54.05;100646.22;677560;29;1144;-84
2024/01/24 01:38:05;;;;;;;5.17;2.47;;;;;;;17.36;54.44;100640.06;674249;29;1495;-84
2024/01/24 01:38:26;;;;;;;5.25;2.40;;;;;;;17.38;54.39;100665.56;676889;29;1907;-83
2024/01/24 01:38:46;;;;;;;3.95;2.47;;;;;;;17.43;54.17;100644.47;677529;29;1187;-84
2024/01/24 01:39:07;;;;;;;11.47;2.70;;;;;;;17.43;54.12;100633.91;677291;29;1624;-83
2024/01/24 01:39:28;;;;;;;10.98;2.55;;;;;;;17.45;54.12;100621.59;677597;29;1093;-83
2024/01/24 01:39:50;;;;;;;10.30;2.20;;;;;;;17.37;54.17;100670.84;676643;29;860;-83
2024/01/24 01:40:11;;;;;;;3.00;1.90;;;;;;;17.36;54.49;100661.19;674628;29;1624;-82
2024/01/24 01:40:31;;;;;;;3.05;1.85;;;;;;;17.33;54.30;100663.84;672417;29;1101;-83
2024/01/24 01:40:52;;;;;;;3.17;1.85;;;;;;;17.33;54.28;100684.94;672395;29;1072;-82
2024/01/24 01:41:13;;;;;;;3.67;1.90;;;;;;;17.34;54.27;100662.94;677223;29;1749;-83
2024/01/24 01:41:36;;;;;;;6.50;2.00;;;;;;;17.38;54.16;100667.31;674884;29;995;-84
2024/01/24 01:41:57;;;;;;;6.35;2.00;;;;;;;17.45;54.24;100670.84;674656;29;1528;-83
2024/01/24 01:42:17;;;;;;;6.20;2.20;;;;;;;17.41;54.16;100677.88;674751;29;1252;-83
2024/01/24 01:42:47;;;;;;;2.72;2.00;;;;;;;17.38;53.82;100669.94;674969;29;1180;-83
2024/01/24 01:43:13;;;;;;;2.97;2.17;;;;;;;17.48;53.91;100658.53;677240;29;1762;-83
2024/01/24 01:43:34;;;;;;;4.43;2.30;;;;;;;17.49;53.86;100654.09;675181;29;1299;-83
2024/01/24 01:43:55;;;;;;;4.32;2.10;;;;;;;17.53;53.90;100654.09;677303;29;1560;-83
2024/01/24 01:44:16;;;;;;;5.07;2.20;;;;;;;17.52;53.94;100702.47;677510;29;1066;-83
2024/01/24 01:44:45;;;;;;;4.07;2.10;;;;;;;17.54;54.14;100669.03;680184;29;1293;-83
2024/01/24 01:45:06;;;;;;;4.05;1.98;;;;;;;17.46;54.08;100675.22;677713;29;1669;-82
2024/01/24 01:45:26;;;;;;;3.28;2.10;;;;;;;17.47;54.10;100671.72;679918;29;1204;-83
2024/01/24 01:45:47;;;;;;;5.00;2.10;;;;;;;17.42;54.12;100642.69;680115;29;912;-83
2024/01/24 01:46:19;;;;;;;4.40;2.13;;;;;;;17.51;53.94;100647.94;677255;29;1528;-82
2024/01/24 01:46:40;;;;;;;2.90;2.20;;;;;;;17.63;53.90;100677.81;675195;29;1191;-82